createdAt,value
2018-07-12T00:00:43.725Z,16.10
2018-07-12T00:03:11.284Z,16.10
2018-07-12T00:05:38.701Z,16.10
2018-07-12T00:08:06.121Z,16.10
2018-07-12T00:10:33.628Z,16.10
2018-07-12T00:13:01.113Z,16.10
2018-07-12T00:15:28.560Z,16.10
2018-07-12T00:17:56.089Z,16.20
2018-07-12T00:20:23.486Z,16.20
2018-07-12T00:22:50.926Z,16.20
2018-07-12T00:25:18.501Z,16.20
2018-07-12T00:27:45.909Z,16.20
2018-07-12T00:30:13.317Z,16.20
2018-07-12T00:32:40.717Z,16.20
2018-07-12T00:35:08.219Z,16.10
2018-07-12T00:37:35.924Z,16.20
2018-07-12T00:40:03.434Z,16.10
2018-07-12T00:42:30.871Z,16.00
2018-07-12T00:44:58.767Z,15.90
2018-07-12T00:47:26.566Z,15.90
2018-07-12T00:49:53.986Z,15.90
2018-07-12T00:52:21.556Z,15.90
2018-07-12T00:54:49.162Z,15.80
2018-07-12T00:57:16.670Z,15.80
2018-07-12T00:59:44.278Z,15.80
2018-07-12T01:02:11.827Z,15.80
2018-07-12T01:04:39.289Z,15.80
2018-07-12T01:07:06.788Z,15.80
2018-07-12T01:09:34.209Z,15.80
2018-07-12T01:12:01.651Z,15.80
2018-07-12T01:14:29.077Z,15.80
2018-07-12T01:16:56.502Z,15.80
2018-07-12T01:19:23.906Z,15.80
2018-07-12T01:21:51.497Z,15.70
2018-07-12T01:24:19.041Z,15.80
2018-07-12T01:26:46.582Z,15.80
2018-07-12T01:29:14.043Z,15.80
2018-07-12T01:31:41.417Z,15.80
2018-07-12T01:34:08.950Z,15.80
2018-07-12T01:36:36.541Z,15.80
2018-07-12T01:39:05.031Z,15.80
2018-07-12T01:41:32.547Z,15.80
2018-07-12T01:44:00.149Z,15.80
2018-07-12T01:46:27.637Z,15.90
2018-07-12T01:48:55.083Z,15.80
2018-07-12T01:51:22.605Z,15.80
2018-07-12T01:53:50.090Z,15.80
2018-07-12T01:56:17.606Z,15.80
2018-07-12T01:58:45.226Z,15.80
2018-07-12T02:01:12.721Z,15.80
2018-07-12T02:03:40.116Z,15.80
2018-07-12T02:06:07.671Z,15.80
2018-07-12T02:08:35.076Z,15.70
2018-07-12T02:11:02.555Z,15.70
2018-07-12T02:13:29.988Z,15.70
2018-07-12T02:15:57.435Z,15.70
2018-07-12T02:18:24.973Z,15.80
2018-07-12T02:20:52.399Z,15.80
2018-07-12T02:23:19.814Z,15.80
2018-07-12T02:25:47.239Z,15.80
2018-07-12T02:28:14.686Z,15.80
2018-07-12T02:30:42.214Z,15.80
2018-07-12T02:33:09.602Z,15.80
2018-07-12T02:35:37.032Z,15.70
2018-07-12T02:38:04.592Z,15.70
2018-07-12T02:40:32.058Z,15.70
2018-07-12T02:42:59.615Z,15.70
2018-07-12T02:45:27.092Z,15.60
2018-07-12T02:47:54.626Z,15.60
2018-07-12T02:50:22.028Z,15.60
2018-07-12T02:52:49.561Z,15.60
2018-07-12T02:55:17.107Z,15.60
2018-07-12T02:57:44.582Z,15.60
2018-07-12T03:00:12.202Z,15.60
2018-07-12T03:02:39.816Z,15.60
2018-07-12T03:05:07.339Z,15.60
2018-07-12T03:07:35.045Z,15.60
2018-07-12T03:10:02.603Z,15.60
2018-07-12T03:12:30.030Z,15.50
2018-07-12T03:14:57.645Z,15.50
2018-07-12T03:17:25.077Z,15.40
2018-07-12T03:19:52.611Z,15.40
2018-07-12T03:22:20.180Z,15.40
2018-07-12T03:24:47.750Z,15.30
2018-07-12T03:27:15.309Z,15.30
2018-07-12T03:29:42.819Z,15.30
2018-07-12T03:32:10.298Z,15.20
2018-07-12T03:34:37.710Z,15.30
2018-07-12T03:37:05.242Z,15.30
2018-07-12T03:39:32.798Z,15.30
2018-07-12T03:42:00.346Z,15.30
2018-07-12T03:44:27.842Z,15.30
2018-07-12T03:46:55.350Z,15.20
2018-07-12T03:49:22.833Z,15.20
2018-07-12T03:51:50.409Z,15.20
2018-07-12T03:54:17.855Z,15.20
2018-07-12T03:56:45.377Z,15.30
2018-07-12T03:59:12.894Z,15.20
2018-07-12T04:04:08.030Z,15.20
2018-07-12T04:06:35.575Z,15.20
2018-07-12T04:09:03.235Z,15.20
2018-07-12T04:11:30.758Z,15.30
2018-07-12T04:13:58.938Z,15.20
2018-07-12T04:16:26.546Z,15.30
2018-07-12T04:18:53.961Z,15.30
2018-07-12T04:21:21.561Z,15.30
2018-07-12T04:23:48.966Z,15.20
2018-07-12T04:26:16.414Z,15.20
2018-07-12T04:28:43.910Z,15.30
2018-07-12T04:31:11.455Z,15.30
2018-07-12T04:33:39.069Z,15.30
2018-07-12T04:36:06.465Z,15.40
2018-07-12T04:38:34.045Z,15.50
2018-07-12T04:41:01.625Z,15.50
2018-07-12T04:43:29.053Z,15.50
2018-07-12T04:45:56.617Z,15.40
2018-07-12T04:48:24.015Z,15.40
2018-07-12T04:50:51.522Z,15.40
2018-07-12T04:53:18.916Z,15.40
2018-07-12T04:55:46.487Z,15.40
2018-07-12T04:58:14.099Z,15.40
2018-07-12T05:00:41.750Z,15.40
2018-07-12T05:03:09.249Z,15.40
2018-07-12T05:05:36.650Z,15.40
2018-07-12T05:08:04.302Z,15.40
2018-07-12T05:10:32.342Z,15.40
2018-07-12T05:13:00.182Z,15.40
2018-07-12T05:15:27.734Z,15.40
2018-07-12T05:17:55.158Z,15.40
2018-07-12T05:20:22.655Z,15.40
2018-07-12T05:22:50.083Z,15.40
2018-07-12T05:25:17.508Z,15.40
2018-07-12T05:27:45.061Z,15.40
2018-07-12T05:30:12.551Z,15.40
2018-07-12T05:32:39.963Z,15.40
2018-07-12T05:35:07.395Z,15.40
2018-07-12T05:37:35.995Z,15.40
2018-07-12T05:40:04.670Z,15.50
2018-07-12T05:42:33.600Z,15.50
2018-07-12T05:45:02.495Z,15.60
2018-07-12T05:47:31.366Z,15.70
2018-07-12T05:50:00.477Z,15.70
2018-07-12T05:52:29.455Z,15.80
2018-07-12T05:54:58.252Z,15.70
2018-07-12T05:57:26.960Z,15.70
2018-07-12T05:59:56.026Z,15.80
2018-07-12T06:02:25.135Z,15.80
2018-07-12T06:04:53.887Z,15.80
2018-07-12T06:07:27.976Z,15.90
2018-07-12T06:09:56.749Z,15.90
2018-07-12T06:12:25.497Z,16.00
2018-07-12T06:14:54.406Z,16.00
2018-07-12T06:17:23.208Z,16.00
2018-07-12T06:19:51.937Z,16.10
2018-07-12T06:22:20.998Z,16.10
2018-07-12T06:24:51.611Z,16.10
2018-07-12T06:27:20.507Z,16.20
2018-07-12T06:29:49.286Z,16.20
2018-07-12T06:34:46.569Z,16.30
2018-07-12T06:37:15.430Z,16.40
2018-07-12T06:39:44.077Z,16.40
2018-07-12T06:42:12.889Z,16.50
2018-07-12T06:44:41.637Z,16.60
2018-07-12T06:47:10.378Z,16.60
2018-07-12T06:49:39.021Z,16.70
2018-07-12T06:52:07.915Z,16.70
2018-07-12T06:54:36.793Z,16.80
2018-07-12T06:57:05.759Z,16.90
2018-07-12T06:59:34.419Z,16.90
2018-07-12T07:02:03.218Z,17.00
2018-07-12T07:04:32.114Z,17.10
2018-07-12T07:07:00.937Z,17.10
2018-07-12T07:09:29.686Z,17.10
2018-07-12T07:11:58.673Z,17.10
2018-07-12T07:14:27.461Z,17.20
2018-07-12T07:16:56.457Z,17.20
2018-07-12T07:19:25.079Z,17.30
2018-07-12T07:24:22.999Z,17.40
2018-07-12T07:26:51.957Z,17.40
2018-07-12T07:29:20.565Z,17.40
2018-07-12T07:31:49.538Z,17.40
2018-07-12T07:34:18.413Z,17.50
2018-07-12T07:36:47.031Z,17.50
2018-07-12T07:39:15.751Z,17.50
2018-07-12T07:41:44.718Z,17.50
2018-07-12T07:44:13.598Z,17.60
2018-07-12T07:46:42.453Z,17.70
2018-07-12T07:49:11.300Z,17.70
2018-07-12T07:51:40.555Z,17.70
2018-07-12T07:54:09.551Z,17.80
2018-07-12T07:56:38.442Z,17.80
2018-07-12T07:59:07.017Z,17.90
2018-07-12T08:01:35.928Z,17.90
2018-07-12T08:04:04.822Z,17.90
2018-07-12T08:06:33.710Z,17.90
2018-07-12T08:09:02.525Z,18.00
2018-07-12T08:11:31.397Z,18.00
2018-07-12T08:14:00.154Z,18.10
2018-07-12T08:16:28.971Z,18.10
2018-07-12T08:18:57.839Z,18.10
2018-07-12T08:21:26.688Z,18.10
2018-07-12T08:23:55.437Z,18.10
2018-07-12T08:26:24.226Z,18.10
2018-07-12T08:28:53.158Z,18.10
2018-07-12T08:31:22.130Z,18.10
2018-07-12T08:33:50.970Z,18.20
2018-07-12T08:36:19.745Z,18.10
2018-07-12T08:38:48.659Z,18.20
2018-07-12T08:41:17.409Z,18.20
2018-07-12T08:43:46.617Z,18.20
2018-07-12T08:46:15.419Z,18.30
2018-07-12T08:48:44.337Z,18.30
2018-07-12T08:51:13.208Z,18.30
2018-07-12T08:53:41.876Z,18.30
2018-07-12T08:56:10.833Z,18.30
2018-07-12T08:58:39.720Z,18.30
2018-07-12T09:01:08.911Z,18.30
2018-07-12T09:03:37.875Z,18.30
2018-07-12T09:06:06.857Z,18.30
2018-07-12T09:08:35.883Z,18.30
2018-07-12T09:11:04.662Z,18.30
2018-07-12T09:13:33.518Z,18.30
2018-07-12T09:16:02.242Z,18.30
2018-07-12T09:18:31.160Z,18.40
2018-07-12T09:23:28.871Z,18.30
2018-07-12T09:25:57.623Z,18.40
2018-07-12T09:28:26.670Z,18.40
2018-07-12T09:30:55.607Z,18.40
2018-07-12T09:33:24.663Z,18.40
2018-07-12T09:35:53.644Z,18.50
2018-07-12T09:38:56.619Z,18.50
2018-07-12T09:41:26.093Z,18.50
2018-07-12T09:43:54.887Z,18.50
2018-07-12T09:46:23.553Z,18.50
2018-07-12T09:48:52.823Z,18.60
2018-07-12T09:51:21.906Z,18.60
2018-07-12T09:53:50.782Z,18.60
2018-07-12T09:56:19.709Z,18.60
2018-07-12T09:58:48.526Z,18.60
2018-07-12T10:01:22.349Z,18.60
2018-07-12T10:06:30.512Z,18.60
2018-07-12T10:09:04.255Z,18.70
2018-07-12T10:11:38.430Z,18.60
2018-07-12T10:14:12.498Z,18.60
2018-07-12T10:16:45.470Z,18.70
2018-07-12T10:19:14.393Z,18.70
2018-07-12T10:24:11.590Z,18.70
2018-07-12T10:26:40.839Z,18.70
2018-07-12T10:29:10.150Z,18.70
2018-07-12T10:31:38.995Z,18.70
2018-07-12T10:34:07.727Z,18.80
2018-07-12T10:36:36.460Z,18.80
2018-07-12T10:39:07.814Z,18.70
2018-07-12T10:41:36.725Z,18.80
2018-07-12T10:44:05.992Z,18.70
2018-07-12T10:46:35.124Z,18.70
2018-07-12T10:49:04.347Z,18.70
2018-07-12T10:51:32.939Z,18.80
2018-07-12T10:56:31.017Z,18.70
2018-07-12T10:58:59.863Z,18.70
2018-07-12T11:01:28.708Z,18.70
2018-07-12T11:03:57.583Z,18.80
2018-07-12T11:06:26.792Z,18.80
2018-07-12T11:08:55.574Z,18.80
2018-07-12T11:11:24.283Z,18.90
2018-07-12T11:13:53.868Z,18.90
2018-07-12T11:16:22.648Z,18.90
2018-07-12T11:18:51.250Z,19.00
2018-07-12T11:21:20.045Z,19.00
2018-07-12T11:23:48.960Z,19.00
2018-07-12T11:26:17.922Z,19.00
2018-07-12T11:28:46.691Z,19.00
2018-07-12T11:31:15.392Z,19.00
2018-07-12T11:33:47.128Z,19.00
2018-07-12T11:36:16.110Z,19.00
2018-07-12T11:38:45.378Z,19.00
2018-07-12T11:41:16.134Z,19.00
2018-07-12T11:43:44.901Z,19.00
2018-07-12T11:46:15.107Z,19.00
2018-07-12T11:48:44.496Z,19.00
2018-07-12T11:51:13.415Z,19.00
2018-07-12T11:53:42.208Z,19.00
2018-07-12T11:58:39.369Z,19.00
2018-07-12T12:01:07.967Z,19.00
2018-07-12T12:03:36.812Z,19.00
2018-07-12T12:06:05.725Z,19.00
2018-07-12T12:08:34.396Z,19.00
2018-07-12T12:11:03.192Z,18.90
2018-07-12T12:13:32.147Z,19.00
2018-07-12T12:16:01.032Z,18.90
2018-07-12T12:18:29.801Z,18.90
2018-07-12T12:20:58.934Z,18.90
2018-07-12T12:23:27.699Z,18.90
2018-07-12T12:25:56.472Z,18.90
2018-07-12T12:28:25.085Z,18.90
2018-07-12T12:30:53.837Z,18.90
2018-07-12T12:33:22.800Z,18.90
2018-07-12T12:35:51.626Z,18.90
2018-07-12T12:38:20.530Z,18.90
2018-07-12T12:40:49.352Z,18.90
2018-07-12T12:43:18.311Z,18.80
2018-07-12T12:45:46.971Z,18.80
2018-07-12T12:48:15.708Z,18.80
2018-07-12T12:50:44.547Z,18.80
2018-07-12T12:53:13.350Z,18.80
2018-07-12T12:55:42.022Z,18.80
2018-07-12T12:58:10.921Z,18.80
2018-07-12T13:00:39.811Z,18.80
2018-07-12T13:03:08.443Z,18.90
2018-07-12T13:05:37.284Z,18.90
2018-07-12T13:08:06.213Z,18.90
2018-07-12T13:10:35.078Z,18.90
2018-07-12T13:13:03.756Z,18.90
2018-07-12T13:15:32.540Z,19.00
2018-07-12T13:18:01.486Z,19.00
2018-07-12T13:20:30.296Z,19.00
2018-07-12T13:22:59.043Z,19.00
2018-07-12T13:25:28.009Z,19.00
2018-07-12T13:27:57.016Z,18.90
2018-07-12T13:30:25.891Z,18.90
2018-07-12T13:32:54.905Z,18.90
2018-07-12T13:35:23.633Z,18.90
2018-07-12T13:37:52.400Z,18.90
2018-07-12T13:40:21.254Z,18.90
2018-07-12T13:42:50.159Z,18.90
2018-07-12T13:45:18.972Z,18.90
2018-07-12T13:47:47.852Z,18.90
2018-07-12T13:50:16.723Z,18.90
2018-07-12T13:52:45.614Z,18.90
2018-07-12T13:55:14.501Z,18.90
2018-07-12T13:57:43.435Z,18.90
2018-07-12T14:00:12.210Z,18.80
2018-07-12T14:02:41.049Z,18.80
2018-07-12T14:05:09.890Z,18.90
2018-07-12T14:07:38.537Z,18.90
2018-07-12T14:10:07.174Z,18.90
2018-07-12T14:12:36.024Z,18.90
2018-07-12T14:15:05.208Z,18.90
2018-07-12T14:17:34.101Z,18.90
2018-07-12T14:20:02.718Z,18.90
2018-07-12T14:22:31.369Z,18.90
2018-07-12T14:25:00.294Z,18.90
2018-07-12T14:27:29.332Z,19.00
2018-07-12T14:29:58.269Z,19.00
2018-07-12T14:32:26.950Z,19.00
2018-07-12T14:34:55.750Z,19.00
2018-07-12T14:37:24.623Z,19.00
2018-07-12T14:39:53.421Z,19.00
2018-07-12T14:42:22.117Z,18.90
2018-07-12T14:44:50.869Z,18.90
2018-07-12T14:47:19.533Z,18.90
2018-07-12T14:49:48.208Z,18.90
2018-07-12T14:52:16.823Z,18.90
2018-07-12T14:54:45.648Z,18.90
2018-07-12T14:57:14.268Z,18.90
2018-07-12T14:59:42.924Z,18.90
2018-07-12T15:02:11.596Z,19.00
2018-07-12T15:04:40.324Z,19.00
2018-07-12T15:07:08.993Z,19.00
2018-07-12T15:09:37.827Z,19.00
2018-07-12T15:12:06.707Z,19.00
2018-07-12T15:14:35.578Z,19.00
2018-07-12T15:17:04.671Z,19.00
2018-07-12T15:19:33.692Z,19.00
2018-07-12T15:22:02.641Z,19.00
2018-07-12T15:24:31.633Z,19.00
2018-07-12T15:27:00.749Z,19.10
2018-07-12T15:29:29.769Z,19.10
2018-07-12T15:31:58.501Z,19.10
2018-07-12T15:34:27.515Z,19.10
2018-07-12T15:36:56.351Z,19.10
2018-07-12T15:39:25.075Z,19.10
2018-07-12T15:41:53.924Z,19.10
2018-07-12T15:44:23.010Z,19.10
2018-07-12T15:46:51.667Z,19.20
2018-07-12T15:49:20.464Z,19.20
2018-07-12T15:51:49.321Z,19.20
2018-07-12T15:54:18.292Z,19.20
2018-07-12T15:56:47.010Z,19.20
2018-07-12T15:59:15.746Z,19.20
2018-07-12T16:01:44.353Z,19.20
2018-07-12T16:04:13.224Z,19.20
2018-07-12T16:06:42.116Z,19.20
2018-07-12T16:09:11.213Z,19.20
2018-07-12T16:11:40.601Z,19.20
2018-07-12T16:14:09.393Z,19.20
2018-07-12T16:16:38.186Z,19.20
2018-07-12T16:19:07.193Z,19.20
2018-07-12T16:21:36.056Z,19.20
2018-07-12T16:24:05.211Z,19.20
2018-07-12T16:26:34.022Z,19.20
2018-07-12T16:29:03.218Z,19.20
2018-07-12T16:31:31.855Z,19.20
2018-07-12T16:34:00.706Z,19.20
2018-07-12T16:36:29.388Z,19.20
2018-07-12T16:38:57.981Z,19.20
2018-07-12T16:41:26.748Z,19.20
2018-07-12T16:43:55.655Z,19.20
2018-07-12T16:46:24.501Z,19.20
2018-07-12T16:48:53.346Z,19.20
2018-07-12T16:51:22.000Z,19.20
2018-07-12T16:53:50.834Z,19.20
2018-07-12T16:56:19.630Z,19.20
2018-07-12T16:58:48.939Z,19.20
2018-07-12T17:01:17.683Z,19.20
2018-07-12T17:03:46.377Z,19.20
2018-07-12T17:06:15.219Z,19.20
2018-07-12T17:08:43.840Z,19.20
2018-07-12T17:11:12.647Z,19.20
2018-07-12T17:13:41.539Z,19.20
2018-07-12T17:16:10.543Z,19.20
2018-07-12T17:18:39.431Z,19.20
2018-07-12T17:21:08.437Z,19.10
2018-07-12T17:23:37.430Z,19.20
2018-07-12T17:26:06.218Z,19.10
2018-07-12T17:28:35.022Z,19.10
2018-07-12T17:31:04.011Z,19.10
2018-07-12T17:33:32.957Z,19.10
2018-07-12T17:36:01.657Z,19.10
2018-07-12T17:38:30.608Z,19.10
2018-07-12T17:40:59.527Z,19.10
2018-07-12T17:43:28.239Z,19.10
2018-07-12T17:45:57.040Z,19.10
2018-07-12T17:48:25.820Z,19.10
2018-07-12T17:50:55.060Z,19.10
2018-07-12T17:53:23.981Z,19.10
2018-07-12T17:55:52.718Z,19.10
2018-07-12T17:58:21.638Z,19.10
2018-07-12T18:00:50.483Z,19.10
2018-07-12T18:03:19.291Z,19.10
2018-07-12T18:05:48.019Z,19.10
2018-07-12T18:08:16.828Z,19.10
2018-07-12T18:10:45.701Z,19.10
2018-07-12T18:13:14.749Z,19.10
2018-07-12T18:15:43.715Z,19.10
2018-07-12T18:18:12.398Z,19.10
2018-07-12T18:20:41.230Z,19.10
2018-07-12T18:23:09.961Z,19.00
2018-07-12T18:25:38.790Z,19.00
2018-07-12T18:28:07.888Z,19.00
2018-07-12T18:30:36.770Z,19.00
2018-07-12T18:33:05.692Z,19.00
2018-07-12T18:35:34.459Z,19.00
2018-07-12T18:38:03.759Z,19.00
2018-07-12T18:40:32.440Z,19.00
2018-07-12T18:43:01.540Z,19.00
2018-07-12T18:45:30.405Z,19.00
2018-07-12T18:47:59.363Z,19.00
2018-07-12T18:50:28.495Z,19.00
2018-07-12T18:52:57.510Z,19.00
2018-07-12T18:55:26.533Z,19.00
2018-07-12T18:57:55.389Z,19.00
2018-07-12T19:00:24.293Z,19.00
2018-07-12T19:02:53.275Z,19.00
2018-07-12T19:05:22.232Z,19.00
2018-07-12T19:07:50.987Z,19.00
2018-07-12T19:10:19.711Z,19.00
2018-07-12T19:12:48.842Z,19.00
2018-07-12T19:15:17.528Z,18.90
2018-07-12T19:17:46.176Z,18.90
2018-07-12T19:20:15.179Z,18.90
2018-07-12T19:22:44.230Z,18.90
2018-07-12T19:25:12.808Z,18.90
2018-07-12T19:27:41.487Z,18.90
2018-07-12T19:30:10.592Z,18.80
2018-07-12T19:32:39.437Z,18.80
2018-07-12T19:35:08.762Z,18.80
2018-07-12T19:37:37.702Z,18.80
2018-07-12T19:40:06.584Z,18.80
2018-07-12T19:42:35.490Z,18.70
2018-07-12T19:45:04.490Z,18.70
2018-07-12T19:47:33.311Z,18.80
2018-07-12T19:50:02.131Z,18.70
2018-07-12T19:52:30.862Z,18.70
2018-07-12T19:55:01.974Z,18.60
2018-07-12T19:57:30.805Z,18.60
2018-07-12T19:59:59.744Z,18.60
2018-07-12T20:02:28.424Z,18.60
2018-07-12T20:04:57.251Z,18.60
2018-07-12T20:07:26.202Z,18.50
2018-07-12T20:09:54.946Z,18.60
2018-07-12T20:12:23.831Z,18.50
2018-07-12T20:14:52.660Z,18.50
2018-07-12T20:17:21.622Z,18.40
2018-07-12T20:19:50.718Z,18.40
2018-07-12T20:22:19.757Z,18.30
2018-07-12T20:24:48.791Z,18.30
2018-07-12T20:27:17.514Z,18.30
2018-07-12T20:29:46.437Z,18.30
2018-07-12T20:32:15.210Z,18.30
2018-07-12T20:34:43.855Z,18.20
2018-07-12T20:37:12.612Z,18.30
2018-07-12T20:39:41.504Z,18.30
2018-07-12T20:42:10.375Z,18.20
2018-07-12T20:44:39.282Z,18.20
2018-07-12T20:47:07.868Z,18.20
2018-07-12T20:49:36.809Z,18.10
2018-07-12T20:52:06.026Z,18.20
2018-07-12T20:54:34.795Z,18.20
2018-07-12T20:57:03.886Z,18.10
2018-07-12T20:59:32.812Z,18.20
2018-07-12T21:02:01.516Z,18.10
2018-07-12T21:04:30.361Z,18.10
2018-07-12T21:06:59.208Z,18.00
2018-07-12T21:09:27.944Z,18.00
2018-07-12T21:11:56.831Z,18.00
2018-07-12T21:14:25.697Z,18.00
2018-07-12T21:16:54.546Z,18.00
2018-07-12T21:19:23.542Z,18.00
2018-07-12T21:21:52.513Z,17.90
2018-07-12T21:24:21.426Z,17.90
2018-07-12T21:26:50.202Z,17.90
2018-07-12T21:29:18.915Z,17.90
2018-07-12T21:31:47.841Z,17.90
2018-07-12T21:34:16.772Z,17.80
2018-07-12T21:36:45.575Z,17.80
2018-07-12T21:39:14.205Z,17.70
2018-07-12T21:41:42.982Z,17.60
2018-07-12T21:44:11.589Z,17.70
2018-07-12T21:46:40.178Z,17.70
2018-07-12T21:49:09.045Z,17.70
2018-07-12T21:51:37.995Z,17.70
2018-07-12T21:54:06.907Z,17.70
2018-07-12T21:56:35.664Z,17.60
2018-07-12T21:59:04.306Z,17.70
2018-07-12T22:01:33.150Z,17.60
2018-07-12T22:04:01.974Z,17.60
2018-07-12T22:07:40.694Z,17.50
2018-07-12T22:10:09.575Z,17.50
2018-07-12T22:12:38.561Z,17.50
2018-07-12T22:15:07.440Z,17.50
2018-07-12T22:17:36.260Z,17.50
2018-07-12T22:20:04.999Z,17.50
2018-07-12T22:22:33.770Z,17.50
2018-07-12T22:25:02.709Z,17.50
2018-07-12T22:27:31.410Z,17.50
2018-07-12T22:30:00.286Z,17.50
2018-07-12T22:32:29.055Z,17.40
2018-07-12T22:34:57.835Z,17.40
2018-07-12T22:37:26.820Z,17.40
2018-07-12T22:39:55.566Z,17.40
2018-07-12T22:42:24.170Z,17.40
2018-07-12T22:44:52.813Z,17.40
2018-07-12T22:47:21.522Z,17.40
2018-07-12T22:49:50.071Z,17.40
2018-07-12T22:52:20.859Z,17.30
2018-07-12T22:54:50.399Z,17.30
2018-07-12T22:57:19.443Z,17.30
2018-07-12T22:59:48.887Z,17.30
2018-07-12T23:02:17.598Z,17.30
2018-07-12T23:04:46.283Z,17.30
2018-07-12T23:07:15.139Z,17.20
2018-07-12T23:09:43.964Z,17.20
2018-07-12T23:12:12.698Z,17.20
2018-07-12T23:14:41.644Z,17.10
2018-07-12T23:17:10.594Z,17.10
2018-07-12T23:19:39.379Z,17.00
2018-07-12T23:22:08.132Z,16.90
2018-07-12T23:24:37.300Z,17.00
2018-07-12T23:27:06.243Z,16.90
2018-07-12T23:29:35.329Z,16.90
2018-07-12T23:32:03.993Z,16.90
2018-07-12T23:34:32.736Z,16.90
2018-07-12T23:37:01.658Z,16.90
2018-07-12T23:39:30.481Z,16.90
2018-07-12T23:41:59.234Z,16.90
2018-07-12T23:44:28.071Z,16.90
2018-07-12T23:46:56.958Z,16.90
2018-07-12T23:49:25.773Z,16.90
2018-07-12T23:51:54.538Z,16.90
2018-07-12T23:54:23.431Z,16.90
2018-07-12T23:56:52.736Z,16.80
2018-07-12T23:59:21.399Z,16.80
